Aviation Digital Data Service (ADDS)

Output produced by METARs form (1715 UTC 24 February 2017)
found at http://aviationweather.gov/adds/metars/
 
KPHL 241430Z 2415/2518 20010G18KT P6SM FEW200 
     FM242300 17008KT P6SM SCT045 
     FM250800 17006KT 2SM BR OVC008 
     FM251400 17008KT P6SM BKN012 
     FM251600 17010G18KT P6SM BKN040